Time;durP1;ratioP1;P1;durP2;ratioP2;P2;SDS_P1;SDS_P2;PMS_P1;PMS_P2;Temp;Humidity;BMP_temperature;BMP_pressure;BME280_temperature;BME280_humidity;BME280_pressure;Samples;Min_cycle;Max_cycle;Signal;HPM_P1;HPM_P2
2021/04/29 00:02:57;;;;;;;11.93;8.38;;;;;;;11.67;56.60;96825.90;3685789;79;43123;-22
2021/04/29 00:08:04;;;;;;;12.82;8.53;;;;;;;11.71;56.43;96814.98;3691033;78;44060;-22
2021/04/29 00:13:10;;;;;;;12.68;8.28;;;;;;;11.69;56.87;96814.39;3694202;79;44796;-23
2021/04/29 00:18:17;;;;;;;11.65;8.53;;;;;;;11.76;56.54;96811.66;3687608;78;44047;-22
2021/04/29 00:23:23;;;;;;;12.75;8.53;;;;;;;11.84;56.25;96811.97;3689649;78;44034;-23
2021/04/29 00:28:29;;;;;;;12.30;7.97;;;;;;;11.99;55.93;96815.31;3697662;78;44070;-23
2021/04/29 00:33:35;;;;;;;10.10;7.33;;;;;;;12.00;56.08;96809.38;3693399;78;43722;-22
2021/04/29 00:38:41;;;;;;;10.20;7.45;;;;;;;11.99;56.57;96804.52;3690535;78;44165;-22
2021/04/29 00:43:47;;;;;;;10.18;7.78;;;;;;;12.00;57.12;96798.08;3688775;79;43679;-22
2021/04/29 00:48:53;;;;;;;9.83;7.58;;;;;;;11.99;57.55;96799.13;3648265;79;43961;-22
2021/04/29 00:53:58;;;;;;;11.15;8.40;;;;;;;12.00;58.00;96788.64;3643360;80;43351;-22
2021/04/29 00:59:05;;;;;;;12.90;8.28;;;;;;;12.02;58.08;96780.32;3638545;80;44083;-23
2021/04/29 01:04:15;;;;;;;10.93;7.62;;;;;;;12.01;58.56;96775.45;3644470;81;44119;-22
2021/04/29 01:09:24;;;;;;;9.23;7.40;;;;;;;11.99;60.15;96776.19;3633877;80;44010;-22
2021/04/29 01:14:31;;;;;;;11.10;7.83;;;;;;;11.99;60.18;96778.06;3635143;81;43777;-22
2021/04/29 01:19:42;;;;;;;10.93;7.35;;;;;;;11.99;60.35;96778.88;3634801;80;44004;-22
2021/04/29 01:24:55;;;;;;;10.90;8.00;;;;;;;11.96;61.07;96775.22;3632138;80;44434;-22
2021/04/29 01:30:03;;;;;;;13.43;8.48;;;;;;;11.80;61.57;96772.45;3640068;80;43711;-22
2021/04/29 01:35:12;;;;;;;11.65;8.33;;;;;;;11.65;62.17;96775.38;3635288;80;43659;-22
2021/04/29 01:40:18;;;;;;;15.23;8.73;;;;;;;11.68;62.17;96773.61;3643765;80;43382;-22
2021/04/29 01:45:24;;;;;;;11.00;8.40;;;;;;;11.67;62.88;96773.80;3641534;81;44865;-22
2021/04/29 01:50:31;;;;;;;10.23;8.28;;;;;;;11.65;63.28;96771.83;3677715;79;44038;-22
2021/04/29 01:55:37;;;;;;;12.68;9.05;;;;;;;11.54;66.47;96796.23;3678785;79;44055;-22
2021/04/29 02:00:43;;;;;;;12.35;8.38;;;;;;;11.53;64.08;96798.61;3676171;79;43416;-22
2021/04/29 02:05:49;;;;;;;11.85;8.45;;;;;;;11.52;63.78;96796.45;3675869;79;44070;-22
2021/04/29 02:10:56;;;;;;;12.13;8.33;;;;;;;11.47;65.71;96794.03;3674362;79;43408;-22
2021/04/29 02:16:05;;;;;;;11.57;8.85;;;;;;;11.43;66.78;96813.03;3679962;79;44056;-22
2021/04/29 02:21:15;;;;;;;11.38;8.53;;;;;;;11.28;77.11;96800.56;3679251;79;43368;-22
2021/04/29 02:26:22;;;;;;;10.68;7.97;;;;;;;11.20;83.48;96787.30;3680113;79;44025;-23
2021/04/29 02:31:28;;;;;;;9.68;8.00;;;;;;;11.09;87.65;96782.83;3682678;79;43954;-23
2021/04/29 02:36:36;;;;;;;12.15;7.55;;;;;;;11.13;81.93;96781.05;3680188;79;44588;-22
2021/04/29 02:41:42;;;;;;;10.18;7.55;;;;;;;11.12;84.83;96772.15;3676116;79;44480;-24
2021/04/29 02:46:50;;;;;;;11.00;7.75;;;;;;;10.99;93.00;96760.84;3673856;79;44097;-22
2021/04/29 02:51:56;;;;;;;10.93;7.62;;;;;;;10.88;100.00;96750.14;3674667;79;43734;-22
2021/04/29 02:57:02;;;;;;;12.60;8.45;;;;;;;10.76;100.00;96756.63;3683784;79;44043;-22
2021/04/29 03:02:09;;;;;;;10.78;8.53;;;;;;;10.72;100.00;96754.55;3709956;79;43958;-24
2021/04/29 03:07:17;;;;;;;11.88;8.35;;;;;;;10.64;100.00;96751.55;3700631;79;43674;-23
2021/04/29 03:12:22;;;;;;;14.95;9.70;;;;;;;10.46;100.00;96752.94;3684521;79;44069;-22
2021/04/29 03:17:29;;;;;;;12.40;9.88;;;;;;;10.32;100.00;96761.45;3682154;79;44065;-22
2021/04/29 03:22:35;;;;;;;11.65;9.70;;;;;;;9.97;100.00;96758.80;3582280;82;44256;-23
2021/04/29 03:27:41;;;;;;;13.53;9.70;;;;;;;9.73;100.00;96763.30;3689458;78;42982;-23
2021/04/29 03:32:47;;;;;;;14.70;10.48;;;;;;;9.65;100.00;96765.62;3672098;79;43407;-23
2021/04/29 03:37:53;;;;;;;13.40;10.78;;;;;;;9.61;100.00;96767.03;3678020;79;44049;-23
2021/04/29 03:42:59;;;;;;;14.70;11.18;;;;;;;9.47;100.00;96767.45;3680092;79;43418;-23
2021/04/29 03:48:06;;;;;;;15.60;11.10;;;;;;;9.40;100.00;96765.56;3679860;79;43382;-22
2021/04/29 03:53:12;;;;;;;15.48;11.48;;;;;;;9.27;100.00;96771.33;3694676;78;43384;-22
2021/04/29 03:58:18;;;;;;;13.55;10.40;;;;;;;9.22;100.00;96774.59;3696920;79;43361;-22
2021/04/29 04:03:24;;;;;;;16.17;11.83;;;;;;;9.25;100.00;96780.93;3691389;79;43720;-23
2021/04/29 04:08:30;;;;;;;16.23;11.40;;;;;;;9.29;100.00;96786.75;3687183;79;43104;-23
2021/04/29 04:13:36;;;;;;;17.82;12.43;;;;;;;9.31;100.00;96790.08;3690334;79;44063;-23
2021/04/29 04:18:42;;;;;;;15.90;11.55;;;;;;;9.26;100.00;96793.34;3701793;78;43719;-23
2021/04/29 04:23:48;;;;;;;16.10;11.80;;;;;;;9.24;100.00;96797.55;3691764;79;43685;-22
2021/04/29 04:28:54;;;;;;;16.35;11.95;;;;;;;9.22;100.00;96810.87;3692626;78;44113;-23
2021/04/29 04:34:00;;;;;;;14.25;11.57;;;;;;;9.20;100.00;96805.70;3690052;78;44048;-23
2021/04/29 04:39:06;;;;;;;16.27;12.00;;;;;;;9.24;100.00;96822.26;3692258;78;44491;-22
2021/04/29 04:44:12;;;;;;;16.95;12.07;;;;;;;9.19;100.00;96826.02;3686178;79;44601;-22
2021/04/29 04:49:18;;;;;;;14.50;10.80;;;;;;;9.12;100.00;96835.36;3675561;78;43714;-22
2021/04/29 04:54:27;;;;;;;14.33;11.08;;;;;;;9.16;100.00;96844.70;3636720;80;44023;-22
2021/04/29 04:59:33;;;;;;;13.93;10.68;;;;;;;9.19;100.00;96853.73;3640128;79;44024;-22
2021/04/29 05:04:39;;;;;;;11.30;9.45;;;;;;;9.28;100.00;96840.16;3641538;80;43714;-22
2021/04/29 05:09:45;;;;;;;14.58;11.08;;;;;;;9.34;100.00;96838.89;3636112;79;43763;-22
2021/04/29 05:14:52;;;;;;;15.63;11.75;;;;;;;9.39;100.00;96840.99;3634087;80;43334;-22
2021/04/29 05:19:57;;;;;;;16.30;12.15;;;;;;;9.41;100.00;96850.52;3632161;80;44050;-22
2021/04/29 05:25:05;;;;;;;14.25;11.35;;;;;;;9.43;100.00;96847.66;3626864;80;44198;-22
2021/04/29 05:30:13;;;;;;;15.15;11.33;;;;;;;9.38;100.00;96865.70;3632640;81;43468;-22
2021/04/29 05:35:19;;;;;;;16.27;11.38;;;;;;;9.36;100.00;96865.06;3606706;80;86950;-22
2021/04/29 05:40:26;;;;;;;15.38;10.75;;;;;;;9.41;100.00;96861.27;3537589;82;44291;-22
2021/04/29 05:45:31;;;;;;;11.83;9.80;;;;;;;9.52;100.00;96862.63;3530197;82;43372;-22
2021/04/29 05:50:38;;;;;;;16.25;10.50;;;;;;;9.59;100.00;96873.44;3531493;82;43750;-22
2021/04/29 05:55:44;;;;;;;12.85;10.38;;;;;;;9.68;100.00;96878.99;3530933;82;44205;-22
2021/04/29 06:00:50;;;;;;;14.80;11.22;;;;;;;9.73;100.00;96885.66;3534290;82;43673;-22
2021/04/29 06:05:56;;;;;;;13.15;10.18;;;;;;;9.77;100.00;96878.84;3532802;81;43144;-22
2021/04/29 06:11:03;;;;;;;13.95;10.72;;;;;;;9.76;100.00;96888.78;3457348;83;44112;-22
2021/04/29 06:16:11;;;;;;;14.68;11.10;;;;;;;9.80;100.00;96890.07;3527632;82;43477;-22
2021/04/29 06:21:17;;;;;;;14.00;10.93;;;;;;;9.82;100.00;96897.41;3538054;82;44097;-22
2021/04/29 06:26:24;;;;;;;13.50;10.68;;;;;;;9.92;100.00;96900.30;3533883;82;43404;-22
2021/04/29 06:31:35;;;;;;;15.70;11.65;;;;;;;9.98;100.00;96901.70;3540523;81;43443;-22
2021/04/29 06:36:40;;;;;;;13.83;11.35;;;;;;;10.04;100.00;96906.81;3534878;82;43085;-21
2021/04/29 06:41:46;;;;;;;17.65;11.45;;;;;;;10.12;100.00;96909.84;3535601;82;43368;-20
2021/04/29 06:46:52;;;;;;;14.47;10.75;;;;;;;10.19;100.00;96918.81;3532118;82;44490;-22
2021/04/29 06:51:58;;;;;;;14.10;11.78;;;;;;;10.27;100.00;96921.34;3564175;81;44099;-22
2021/04/29 06:57:05;;;;;;;14.03;10.05;;;;;;;10.39;100.00;96923.03;3516876;83;44069;-21
2021/04/29 07:02:14;;;;;;;12.95;10.43;;;;;;;10.49;100.00;96922.66;3577694;81;43682;-22
2021/04/29 07:07:24;;;;;;;14.05;10.32;;;;;;;10.65;100.00;96921.50;3576221;81;43312;-23
2021/04/29 07:12:31;;;;;;;11.93;9.93;;;;;;;10.77;100.00;96933.91;3577304;81;44070;-23
2021/04/29 07:17:37;;;;;;;10.65;9.35;;;;;;;10.90;100.00;96926.39;3576629;81;45038;-22
2021/04/29 07:22:44;;;;;;;11.55;8.65;;;;;;;11.08;100.00;96925.34;3572863;81;44019;-23
2021/04/29 07:27:51;;;;;;;9.05;7.75;;;;;;;11.20;100.00;96927.45;3570134;81;43865;-23
2021/04/29 07:32:58;;;;;;;8.75;7.00;;;;;;;11.27;100.00;96933.69;3495653;83;43693;-23
2021/04/29 07:38:05;;;;;;;9.38;6.37;;;;;;;11.38;100.00;96931.75;3581611;81;44165;-23
2021/04/29 07:43:12;;;;;;;8.15;6.22;;;;;;;11.58;100.00;96928.80;3571413;81;44173;-23
2021/04/29 07:48:19;;;;;;;6.95;5.47;;;;;;;11.82;100.00;96928.70;3578250;81;43698;-23
2021/04/29 07:53:25;;;;;;;6.20;5.08;;;;;;;11.75;100.00;96929.23;3485413;83;43378;-23
2021/04/29 07:58:32;;;;;;;6.90;5.42;;;;;;;11.72;100.00;96932.65;3571130;81;42957;-23
2021/04/29 08:03:40;;;;;;;5.53;5.03;;;;;;;11.84;100.00;96964.42;3571343;81;26364;-24
2021/04/29 08:08:46;;;;;;;6.85;5.45;;;;;;;12.05;100.00;96949.94;3484483;82;43346;-22
2021/04/29 08:13:54;;;;;;;5.47;4.97;;;;;;;12.24;100.00;96963.64;3571760;81;43721;-23
2021/04/29 08:19:00;;;;;;;6.08;5.47;;;;;;;12.33;100.00;96974.03;3485985;83;44075;-23
2021/04/29 08:24:08;;;;;;;7.15;5.50;;;;;;;12.52;100.00;96959.39;3567430;80;44242;-22
2021/04/29 08:29:14;;;;;;;5.67;5.08;;;;;;;12.92;100.00;96968.75;3577517;81;43463;-22
2021/04/29 08:34:20;;;;;;;6.22;5.12;;;;;;;13.05;100.00;96977.33;3569287;81;42877;-23
2021/04/29 08:39:27;;;;;;;6.28;5.40;;;;;;;13.45;100.00;96972.34;3489012;83;43719;-23
2021/04/29 08:44:35;;;;;;;6.42;4.90;;;;;;;13.60;100.00;96974.75;3517562;83;43489;-23
2021/04/29 08:49:42;;;;;;;8.15;5.00;;;;;;;13.68;100.00;96988.02;3579575;81;43687;-24
2021/04/29 08:54:49;;;;;;;5.50;4.90;;;;;;;13.82;100.00;96985.24;3573535;81;43424;-24
2021/04/29 08:59:55;;;;;;;5.17;4.33;;;;;;;14.10;94.29;96997.03;3479971;83;44049;-23
2021/04/29 09:05:12;;;;;;;9.53;5.05;;;;;;;14.29;89.07;96976.78;3570933;81;44187;-23
2021/04/29 09:10:26;;;;;;;8.18;5.50;;;;;;;14.40;90.16;96981.51;3576842;81;43278;-23
2021/04/29 09:15:35;;;;;;;8.18;5.75;;;;;;;13.97;80.59;96989.00;3573895;81;44465;-24
2021/04/29 09:20:51;;;;;;;6.90;5.40;;;;;;;14.32;80.66;96980.41;3485243;83;44104;-23
2021/04/29 09:25:58;;;;;;;6.87;5.72;;;;;;;14.60;80.18;96994.04;3572151;80;43708;-24
2021/04/29 09:31:06;;;;;;;6.85;5.25;;;;;;;14.69;75.64;96995.44;3579052;81;44043;-22
2021/04/29 09:36:23;;;;;;;7.25;5.33;;;;;;;15.07;73.14;97003.93;3573595;81;43313;-23
2021/04/29 09:41:31;;;;;;;7.37;4.25;;;;;;;14.78;71.30;97003.58;3578702;81;43710;-22
2021/04/29 09:46:42;;;;;;;15.28;4.70;;;;;;;14.73;75.00;97004.80;3478283;84;44617;-24
2021/04/29 09:51:49;;;;;;;6.40;4.40;;;;;;;14.68;72.50;97010.05;3568274;81;44027;-23
2021/04/29 09:56:56;;;;;;;5.47;3.70;;;;;;;14.72;71.05;97006.35;3533308;83;44085;-24
2021/04/29 10:02:03;;;;;;;5.17;3.62;;;;;;;15.00;67.58;97007.22;3538564;82;44050;-24
2021/04/29 10:07:12;;;;;;;8.10;4.28;;;;;;;15.50;66.68;97027.13;3534243;82;44035;-22
2021/04/29 10:12:19;;;;;;;7.40;3.50;;;;;;;15.74;65.90;97020.46;3530533;83;43675;-24
2021/04/29 10:17:29;;;;;;;5.10;3.35;;;;;;;15.32;66.90;97024.73;3536132;82;44001;-24
2021/04/29 10:22:36;;;;;;;4.35;3.40;;;;;;;14.97;62.29;97017.70;3537644;82;43391;-25
2021/04/29 10:27:46;;;;;;;5.90;3.37;;;;;;;14.72;64.40;97008.55;3540075;82;43694;-24
2021/04/29 10:32:52;;;;;;;4.30;2.95;;;;;;;14.53;67.70;97037.97;3534583;83;43715;-23
2021/04/29 10:38:00;;;;;;;5.30;3.15;;;;;;;14.40;65.26;97037.05;3535211;82;43708;-23
2021/04/29 10:43:07;;;;;;;5.58;2.83;;;;;;;14.52;63.76;97036.33;3533796;83;44003;-23
2021/04/29 10:48:15;;;;;;;5.62;2.72;;;;;;;14.41;64.67;97044.09;3537982;82;43714;-23
2021/04/29 10:53:33;;;;;;;5.78;3.40;;;;;;;13.33;79.27;97072.21;3539882;81;44189;-22
2021/04/29 10:58:40;;;;;;;5.78;3.52;;;;;;;12.33;92.22;97081.23;3572107;81;44103;-22
2021/04/29 11:03:50;;;;;;;3.95;3.55;;;;;;;12.30;99.69;97061.38;3565790;81;44889;-23
2021/04/29 11:08:58;;;;;;;5.00;3.70;;;;;;;12.57;99.04;97056.83;3582269;81;44345;-23
2021/04/29 11:14:07;;;;;;;4.58;3.00;;;;;;;13.07;100.00;97036.61;3570854;81;43706;-22
2021/04/29 11:19:39;;;;;;;4.78;3.70;;;;;;;13.78;91.15;97020.55;3575517;81;43997;-23
2021/04/29 11:24:49;;;;;;;5.60;3.92;;;;;;;14.31;91.62;97036.48;3480998;85;43719;-23
2021/04/29 11:30:01;;;;;;;5.25;4.00;;;;;;;14.62;82.14;97029.89;3477418;84;43552;-23
2021/04/29 11:35:11;;;;;;;6.12;3.70;;;;;;;14.84;77.97;97014.59;3568823;81;44123;-23
2021/04/29 11:40:18;;;;;;;4.47;3.42;;;;;;;14.77;75.72;97026.31;3578701;81;43424;-23
2021/04/29 11:45:26;;;;;;;4.25;3.50;;;;;;;15.21;70.30;97008.67;3573072;81;43370;-23
2021/04/29 11:50:34;;;;;;;4.87;3.45;;;;;;;14.97;70.50;97009.05;3580353;81;43996;-24
2021/04/29 11:55:42;;;;;;;3.72;3.15;;;;;;;15.10;65.77;96989.93;3543344;81;43361;-22
2021/04/29 12:00:50;;;;;;;3.77;3.30;;;;;;;15.47;64.58;97001.28;3540460;82;44170;-24
2021/04/29 12:05:59;;;;;;;6.35;3.65;;;;;;;15.83;63.28;97014.49;3538918;81;44002;-24
2021/04/29 12:11:07;;;;;;;4.97;3.67;;;;;;;15.63;60.30;97006.61;3540049;82;44055;-24
2021/04/29 12:16:15;;;;;;;3.42;2.90;;;;;;;15.94;60.67;97014.25;3537779;81;43437;-23
2021/04/29 12:21:24;;;;;;;4.45;3.17;;;;;;;15.85;52.19;96989.33;3530068;82;44499;-23
2021/04/29 12:26:34;;;;;;;3.72;3.30;;;;;;;16.14;55.53;96991.42;3532306;81;43480;-24
2021/04/29 12:31:43;;;;;;;3.95;3.47;;;;;;;16.78;59.08;96983.98;3532116;82;43661;-23
2021/04/29 12:36:53;;;;;;;6.17;3.05;;;;;;;17.47;60.38;96981.14;3531001;82;43698;-23
2021/04/29 12:42:01;;;;;;;3.45;3.10;;;;;;;17.06;53.63;96972.39;3532991;81;43381;-23
2021/04/29 12:47:08;;;;;;;4.87;2.42;;;;;;;16.44;62.38;96977.78;3545296;82;44044;-24
2021/04/29 12:52:16;;;;;;;3.30;2.80;;;;;;;15.76;64.56;97011.56;3527745;81;44130;-24
2021/04/29 12:57:27;;;;;;;5.05;2.98;;;;;;;15.22;67.74;97016.30;3576223;81;44084;-24
2021/04/29 13:02:33;;;;;;;5.78;3.00;;;;;;;14.13;73.71;97026.90;3486687;83;44016;-24
2021/04/29 13:07:39;;;;;;;4.92;3.50;;;;;;;13.78;77.29;97032.73;3571645;80;43938;-24
2021/04/29 13:12:51;;;;;;;3.72;3.25;;;;;;;14.35;79.68;97017.90;3572609;81;43984;-24
2021/04/29 13:17:58;;;;;;;7.55;3.70;;;;;;;14.41;80.16;97020.25;3569995;81;44081;-24
2021/04/29 13:23:04;;;;;;;4.50;3.50;;;;;;;14.40;80.54;97020.79;3569547;81;43689;-23
2021/04/29 13:28:10;;;;;;;3.55;3.25;;;;;;;14.32;77.75;97019.69;3569230;81;44057;-23
2021/04/29 13:33:16;;;;;;;5.42;3.12;;;;;;;14.31;79.26;97009.89;3480455;83;44574;-23
2021/04/29 13:38:22;;;;;;;5.92;3.35;;;;;;;14.25;74.94;97025.69;3567206;81;43688;-24
2021/04/29 13:43:28;;;;;;;4.70;2.80;;;;;;;14.21;74.08;97019.04;3580265;81;43719;-22
2021/04/29 13:48:34;;;;;;;9.10;3.90;;;;;;;14.09;73.02;97029.22;3569655;81;43267;-23
2021/04/29 13:53:41;;;;;;;11.20;3.70;;;;;;;14.07;76.78;97032.66;3572567;81;43759;-23
2021/04/29 13:58:48;;;;;;;2.08;1.70;;;;;;;14.11;82.19;97046.63;3547219;80;43436;-23
2021/04/29 14:03:54;;;;;;;4.92;2.30;;;;;;;13.89;68.83;97043.41;3534296;81;43698;-23
2021/04/29 14:09:00;;;;;;;4.83;3.10;;;;;;;12.87;88.65;97094.25;3535988;82;43711;-22
2021/04/29 14:14:08;;;;;;;3.37;3.08;;;;;;;12.13;100.00;97066.34;3533704;81;43405;-22
2021/04/29 14:19:16;;;;;;;5.62;2.90;;;;;;;12.09;100.00;97052.43;3528667;82;43766;-22
2021/04/29 14:24:22;;;;;;;3.87;3.17;;;;;;;12.16;100.00;97042.46;3541963;81;43130;-22
2021/04/29 14:29:29;;;;;;;5.17;3.40;;;;;;;12.22;100.00;97034.06;3526175;82;43419;-22
2021/04/29 14:34:35;;;;;;;4.53;3.22;;;;;;;12.33;100.00;97029.92;3531262;81;43743;-21
2021/04/29 14:39:41;;;;;;;5.53;4.30;;;;;;;12.39;100.00;97049.34;3533746;81;44055;-22
2021/04/29 14:44:49;;;;;;;5.03;3.35;;;;;;;12.23;100.00;97070.82;3546182;81;42818;-24
2021/04/29 14:49:56;;;;;;;5.50;3.47;;;;;;;11.83;100.00;97070.68;3605871;81;42793;-22
2021/04/29 14:55:02;;;;;;;5.12;3.67;;;;;;;11.46;100.00;97060.18;3607542;80;44091;-23
2021/04/29 15:00:09;;;;;;;4.85;4.35;;;;;;;11.46;100.00;97060.70;3607033;81;44397;-22
2021/04/29 15:05:15;;;;;;;6.67;4.20;;;;;;;11.48;100.00;97074.30;3611299;80;44134;-22
2021/04/29 15:10:21;;;;;;;4.80;3.90;;;;;;;11.70;100.00;97062.86;3607738;80;44026;-22
2021/04/29 15:15:27;;;;;;;5.25;4.75;;;;;;;12.01;100.00;97052.09;3608609;80;42694;-22
2021/04/29 15:20:34;;;;;;;5.75;4.45;;;;;;;12.55;100.00;97047.27;3611422;80;44023;-22
2021/04/29 15:25:40;;;;;;;4.80;4.17;;;;;;;12.81;100.00;97045.61;3610609;80;44073;-23
2021/04/29 15:30:47;;;;;;;4.25;3.85;;;;;;;14.00;99.30;97038.66;3608579;81;43718;-23
2021/04/29 15:35:54;;;;;;;5.12;3.40;;;;;;;14.78;83.36;97034.76;3605057;80;43487;-24
2021/04/29 15:41:00;;;;;;;4.30;3.90;;;;;;;15.61;84.18;97028.27;3612858;79;44213;-26
2021/04/29 15:46:07;;;;;;;4.97;3.98;;;;;;;15.08;84.87;97032.72;3609853;80;43678;-24
2021/04/29 15:51:16;;;;;;;4.20;3.80;;;;;;;15.81;80.04;97029.36;3609250;81;43689;-24
2021/04/29 15:56:25;;;;;;;4.35;3.80;;;;;;;15.38;85.10;97033.31;3580075;80;44030;-23
2021/04/29 16:01:30;;;;;;;5.25;4.00;;;;;;;15.35;81.84;97026.97;3539178;82;43331;-23
2021/04/29 16:06:36;;;;;;;4.53;3.70;;;;;;;14.98;84.08;97032.91;3528908;82;44074;-23
2021/04/29 16:11:42;;;;;;;4.35;3.95;;;;;;;14.73;85.76;97037.83;3466333;83;43668;-23
2021/04/29 16:16:49;;;;;;;5.20;4.55;;;;;;;14.49;86.85;97040.29;3541436;82;44046;-23
2021/04/29 16:21:56;;;;;;;5.70;4.03;;;;;;;14.56;88.33;97045.16;3541554;82;44043;-23
2021/04/29 16:27:03;;;;;;;4.10;3.12;;;;;;;14.39;87.21;97049.44;3533452;82;43588;-23
2021/04/29 16:32:09;;;;;;;4.30;3.90;;;;;;;14.18;88.27;97057.70;3497286;83;43686;-23
2021/04/29 16:37:15;;;;;;;5.30;3.95;;;;;;;14.28;83.91;97054.52;3495914;84;44090;-23
2021/04/29 16:42:23;;;;;;;4.20;3.77;;;;;;;14.09;84.74;97062.25;3503432;83;44014;-23
2021/04/29 16:47:30;;;;;;;4.60;3.85;;;;;;;13.96;82.92;97065.34;3533409;82;44082;-23
2021/04/29 16:52:37;;;;;;;6.17;4.20;;;;;;;13.95;82.25;97060.13;3530119;82;44296;-23
2021/04/29 16:57:44;;;;;;;4.03;3.33;;;;;;;13.83;90.88;97062.16;3582514;81;43716;-23
2021/04/29 17:02:53;;;;;;;2.77;2.58;;;;;;;13.83;79.38;97069.46;3610324;80;44516;-20
2021/04/29 17:08:02;;;;;;;3.00;2.52;;;;;;;13.84;62.30;97064.36;3610275;81;43673;-21
2021/04/29 17:13:07;;;;;;;3.05;2.35;;;;;;;13.82;60.23;97061.03;3609337;80;43677;-21
2021/04/29 17:18:13;;;;;;;2.50;2.30;;;;;;;13.38;59.68;97063.45;3611209;81;44062;-21
2021/04/29 17:23:20;;;;;;;2.98;2.67;;;;;;;13.35;62.68;97073.34;3609647;82;44722;-22
2021/04/29 17:28:25;;;;;;;3.35;2.60;;;;;;;13.20;59.71;97075.80;3606251;80;44050;-21
2021/04/29 17:33:33;;;;;;;91.40;44.67;;;;;;;13.16;58.10;97075.89;3608388;82;44421;-21
2021/04/29 17:38:39;;;;;;;44.65;33.65;;;;;;;13.03;58.48;97072.70;3610202;80;44034;-20
2021/04/29 17:43:45;;;;;;;16.17;13.65;;;;;;;12.86;60.16;97083.13;3612784;80;44064;-21
2021/04/29 17:48:50;;;;;;;4.28;3.00;;;;;;;12.66;62.53;97082.27;3608130;80;44012;-20
2021/04/29 17:53:57;;;;;;;2.65;2.45;;;;;;;12.48;65.79;97097.23;3606870;80;43354;-20
2021/04/29 17:59:04;;;;;;;4.75;3.10;;;;;;;12.28;65.56;97099.91;3609609;80;44051;-22
2021/04/29 18:04:11;;;;;;;3.42;3.10;;;;;;;12.43;67.14;97108.66;3608594;81;43416;-23
2021/04/29 18:09:20;;;;;;;3.55;2.85;;;;;;;12.55;64.54;97112.92;3609895;80;26310;-23
2021/04/29 18:14:29;;;;;;;3.40;3.08;;;;;;;12.52;65.77;97120.11;3620597;80;43674;-21
2021/04/29 18:19:34;;;;;;;5.75;2.22;;;;;;;12.32;62.59;97151.95;3609616;80;43043;-21
2021/04/29 18:24:41;;;;;;;3.58;2.37;;;;;;;12.29;66.34;97164.50;3610057;81;44168;-21
2021/04/29 18:29:47;;;;;;;2.83;2.45;;;;;;;12.28;65.60;97197.97;3611454;80;44475;-21
2021/04/29 18:34:54;;;;;;;3.22;2.90;;;;;;;12.12;70.92;97182.92;3611174;81;44004;-21
2021/04/29 18:40:02;;;;;;;6.47;3.20;;;;;;;11.98;73.35;97192.84;3610147;80;43693;-21
2021/04/29 18:45:12;;;;;;;4.58;3.10;;;;;;;11.93;70.12;97187.20;3610076;80;44283;-21
2021/04/29 18:50:17;;;;;;;5.45;3.65;;;;;;;11.79;73.39;97201.13;3610416;80;43998;-21
2021/04/29 18:55:26;;;;;;;5.25;4.05;;;;;;;11.67;76.09;97213.00;3608601;81;44136;-23
2021/04/29 19:00:33;;;;;;;6.70;3.90;;;;;;;11.35;79.05;97228.73;3562911;82;43750;-22
2021/04/29 19:05:39;;;;;;;4.92;4.00;;;;;;;11.19;78.85;97230.39;3544248;82;43690;-22
2021/04/29 19:10:47;;;;;;;4.45;3.42;;;;;;;11.18;77.44;97247.59;3495014;83;43341;-22
2021/04/29 19:15:53;;;;;;;9.68;6.33;;;;;;;11.20;76.55;97255.79;3555873;82;43711;-22
2021/04/29 19:20:59;;;;;;;8.05;6.53;;;;;;;11.07;77.36;97263.25;3545766;82;43723;-21
2021/04/29 19:26:05;;;;;;;5.60;4.80;;;;;;;11.05;77.59;97282.82;3535008;82;44269;-21
2021/04/29 19:31:12;;;;;;;8.20;5.60;;;;;;;10.75;80.34;97285.64;3536140;82;44555;-21
2021/04/29 19:36:19;;;;;;;8.40;6.05;;;;;;;10.67;75.66;97293.81;3538543;82;44006;-21
2021/04/29 19:41:25;;;;;;;8.23;6.17;;;;;;;10.61;78.16;97295.93;3459330;83;44179;-23
2021/04/29 19:46:31;;;;;;;7.45;6.25;;;;;;;10.43;79.56;97303.89;3496537;83;44001;-22
2021/04/29 19:51:38;;;;;;;8.35;6.90;;;;;;;10.31;80.24;97308.91;3421665;84;43660;-22
2021/04/29 19:56:44;;;;;;;9.10;6.75;;;;;;;10.47;76.19;97315.97;3530181;82;43256;-22
2021/04/29 20:01:50;;;;;;;8.88;7.17;;;;;;;10.62;76.00;97325.89;3605740;80;43055;-21
2021/04/29 20:06:56;;;;;;;8.60;7.03;;;;;;;10.61;76.54;97333.64;3608949;82;43495;-22
2021/04/29 20:12:06;;;;;;;7.22;5.85;;;;;;;10.57;74.75;97341.76;3609750;80;43496;-23
2021/04/29 20:17:15;;;;;;;8.70;5.80;;;;;;;10.37;69.25;97328.00;3609838;80;43138;-25
2021/04/29 20:22:22;;;;;;;8.95;6.50;;;;;;;10.32;67.96;97338.84;3609239;81;43332;-23
2021/04/29 20:27:29;;;;;;;8.20;5.83;;;;;;;10.02;73.33;97354.14;3608873;80;43282;-23
2021/04/29 20:32:36;;;;;;;7.72;5.75;;;;;;;9.72;73.22;97363.49;3614371;80;43207;-22
2021/04/29 20:37:44;;;;;;;7.55;5.92;;;;;;;9.49;75.54;97376.45;3609321;80;43686;-22
2021/04/29 20:42:52;;;;;;;6.35;5.53;;;;;;;9.09;77.98;97383.81;3614728;80;43448;-23
2021/04/29 20:47:58;;;;;;;7.15;6.05;;;;;;;8.75;80.75;97399.78;3608775;82;43673;-25
2021/04/29 20:53:05;;;;;;;6.40;4.97;;;;;;;8.40;85.23;97410.77;3610491;80;44389;-22
2021/04/29 20:58:11;;;;;;;9.65;6.03;;;;;;;8.33;80.36;97420.53;3614113;80;43694;-24
2021/04/29 21:03:17;;;;;;;6.30;5.47;;;;;;;8.21;80.21;97435.31;3609482;80;43255;-21
2021/04/29 21:08:23;;;;;;;7.72;5.92;;;;;;;8.11;80.09;97429.64;3608630;80;43728;-21
2021/04/29 21:13:30;;;;;;;7.45;6.53;;;;;;;7.89;83.26;97439.69;3615293;80;43482;-21
2021/04/29 21:18:37;;;;;;;9.30;6.90;;;;;;;7.58;86.56;97459.98;3602984;82;44631;-21
2021/04/29 21:23:43;;;;;;;9.10;7.20;;;;;;;7.47;86.19;97459.79;3612655;80;43368;-21
2021/04/29 21:28:49;;;;;;;10.95;8.05;;;;;;;7.31;87.46;97461.95;3611332;80;43383;-21
2021/04/29 21:33:55;;;;;;;11.68;8.10;;;;;;;7.20;87.13;97487.19;3609840;80;42773;-21
2021/04/29 21:39:01;;;;;;;10.13;7.97;;;;;;;7.07;86.85;97482.30;3606279;82;43986;-21
2021/04/29 21:44:08;;;;;;;10.68;7.22;;;;;;;6.85;86.60;97501.63;3609749;80;43363;-21
2021/04/29 21:49:14;;;;;;;10.85;8.38;;;;;;;6.88;86.06;97485.25;3602753;82;43686;-21
2021/04/29 21:54:20;;;;;;;9.93;7.70;;;;;;;6.75;86.93;97499.92;3604943;81;44012;-21
2021/04/29 21:59:28;;;;;;;10.60;8.05;;;;;;;6.63;88.94;97507.89;3607775;80;43677;-21
2021/04/29 22:04:34;;;;;;;10.35;8.18;;;;;;;6.59;87.43;97503.84;3607057;80;43973;-21
2021/04/29 22:09:40;;;;;;;10.60;8.17;;;;;;;6.45;89.26;97511.45;3608437;80;44413;-21
2021/04/29 22:14:46;;;;;;;11.85;9.25;;;;;;;6.33;91.03;97522.06;3611501;80;44042;-21
2021/04/29 22:19:53;;;;;;;11.28;9.13;;;;;;;6.11;93.64;97524.25;3607565;80;44463;-21
2021/04/29 22:24:59;;;;;;;11.40;8.60;;;;;;;6.16;92.72;97519.30;3608352;81;44414;-22
2021/04/29 22:30:08;;;;;;;10.93;8.77;;;;;;;6.14;92.57;97531.97;3610932;80;44622;-21
2021/04/29 22:35:15;;;;;;;12.98;9.15;;;;;;;6.03;94.39;97525.53;3604608;82;44068;-21
2021/04/29 22:40:21;;;;;;;10.32;8.85;;;;;;;5.98;93.75;97543.83;3609245;80;43776;-21
2021/04/29 22:45:27;;;;;;;11.40;8.50;;;;;;;5.90;93.61;97550.44;3611946;80;43329;-21
2021/04/29 22:50:35;;;;;;;11.33;9.23;;;;;;;5.84;94.73;97557.25;3610022;80;43315;-21
2021/04/29 22:55:42;;;;;;;11.80;9.38;;;;;;;5.73;96.17;97571.66;3606776;81;44158;-21
2021/04/29 23:00:48;;;;;;;11.00;8.60;;;;;;;5.79;93.90;97556.37;3617134;80;43357;-20
2021/04/29 23:05:54;;;;;;;12.13;8.68;;;;;;;5.87;91.65;97554.27;3547150;82;44124;-20
2021/04/29 23:11:01;;;;;;;13.95;9.18;;;;;;;5.72;93.82;97567.30;3612439;80;44034;-20
2021/04/29 23:16:07;;;;;;;10.53;8.10;;;;;;;5.50;95.94;97566.75;3612450;80;43314;-21
2021/04/29 23:21:12;;;;;;;10.90;8.48;;;;;;;5.43;94.36;97567.02;3608440;80;75278;-21
2021/04/29 23:26:19;;;;;;;12.88;8.68;;;;;;;5.44;95.15;97562.02;3608284;81;44050;-21
2021/04/29 23:31:25;;;;;;;9.78;7.95;;;;;;;5.47;94.13;97567.55;3551253;82;44550;-21
2021/04/29 23:36:31;;;;;;;11.33;8.37;;;;;;;5.37;95.29;97577.80;3608727;81;44793;-20
2021/04/29 23:41:37;;;;;;;10.95;8.15;;;;;;;5.33;95.74;97594.28;3607805;80;43440;-21
2021/04/29 23:46:43;;;;;;;10.77;8.30;;;;;;;5.30;96.08;97602.58;3609821;80;44188;-21
2021/04/29 23:51:49;;;;;;;14.93;8.58;;;;;;;5.30;96.63;97599.91;3608607;80;42852;-20
2021/04/29 23:56:57;;;;;;;11.30;8.53;;;;;;;5.37;95.22;97593.83;3606604;82;43475;-20
